Terminal Aerodrome Forecast
Issued by NWS

Home | Current Version | Previous Version | Text Only | Print | Product List | Glossary On
Versions: 1 2 3 4 5 6 7 8 9 10 11 12 13
000
FTUS44 KLIX 290500
TAFMCB
TAF
KMCB 290520Z 2906/3006 00000KT P6SM FEW040 SCT250
      TEMPO 2909/2912 5SM BR
     FM291500 14006KT P6SM VCSH SCT040 BKN060
      TEMPO 2920/2924 3SM -TSRA SCT030CB BKN040
     FM300200 15004KT P6SM SCT050 BKN100=

USA.gov is the U.S. government's official web portal to all federal, state and local government web resources and services.